Time;durP1;ratioP1;P1;durP2;ratioP2;P2;SDS_P1;SDS_P2;PMS_P1;PMS_P2;Temp;Humidity;BMP_temperature;BMP_pressure;BME280_temperature;BME280_humidity;BME280_pressure;Samples;Min_cycle;Max_cycle;Signal;HPM_P1;HPM_P2
2023/09/06 00:01:09;;;;;;;7.85;5.00;;;;;;;14.54;71.84;99259.91;4860234;29;20068;-59
2023/09/06 00:03:37;;;;;;;7.32;4.65;;;;;;;14.50;72.03;99252.66;4859472;29;20057;-58
2023/09/06 00:06:04;;;;;;;7.05;4.85;;;;;;;14.48;72.12;99254.81;4860554;29;20060;-59
2023/09/06 00:08:34;;;;;;;7.53;4.47;;;;;;;14.47;72.45;99251.34;4844286;29;20069;-58
2023/09/06 00:11:06;;;;;;;6.88;4.78;;;;;;;14.44;72.72;99253.72;4860548;29;20687;-58
2023/09/06 00:13:34;;;;;;;6.47;4.88;;;;;;;14.37;72.97;99246.00;4860712;29;20084;-57
2023/09/06 00:16:01;;;;;;;7.28;4.47;;;;;;;14.34;72.97;99243.88;4861361;29;20701;-58
2023/09/06 00:18:27;;;;;;;6.05;4.30;;;;;;;14.29;73.03;99244.69;4862657;29;20140;-57
2023/09/06 00:20:53;;;;;;;7.60;4.38;;;;;;;14.27;72.93;99251.34;4859158;29;20124;-59
2023/09/06 00:23:20;;;;;;;6.82;4.75;;;;;;;14.25;73.22;99242.78;4860605;29;20045;-58
2023/09/06 00:25:46;;;;;;;7.60;4.70;;;;;;;14.22;73.15;99246.78;4863712;29;20085;-58
2023/09/06 00:28:13;;;;;;;6.70;4.75;;;;;;;14.22;73.46;99246.78;4860560;29;20084;-55
2023/09/06 00:30:39;;;;;;;7.28;4.32;;;;;;;14.21;73.18;99241.72;4858940;29;20451;-59
2023/09/06 00:33:06;;;;;;;5.90;4.47;;;;;;;14.20;73.33;99237.44;4860527;29;20050;-59
2023/09/06 00:35:33;;;;;;;6.35;4.40;;;;;;;14.18;73.53;99240.41;4860423;29;20137;-59
2023/09/06 00:38:05;;;;;;;6.63;4.82;;;;;;;14.16;73.81;99241.72;4850813;29;20056;-57
2023/09/06 00:40:39;;;;;;;6.97;4.72;;;;;;;14.15;73.72;99234.78;4856376;29;20046;-58
2023/09/06 00:43:07;;;;;;;8.90;4.55;;;;;;;14.15;74.03;99243.59;4860509;29;20049;-57
2023/09/06 00:45:48;;;;;;;6.20;4.38;;;;;;;14.20;74.24;99240.91;4860164;29;20049;-59
2023/09/06 00:48:19;;;;;;;6.22;4.72;;;;;;;14.25;73.92;99238.25;4859089;29;20322;-57
2023/09/06 00:50:50;;;;;;;6.10;4.70;;;;;;;14.32;74.02;99224.66;4858984;29;20046;-57
2023/09/06 00:53:17;;;;;;;9.30;4.70;;;;;;;14.38;73.88;99226.25;4857989;29;20057;-59
2023/09/06 00:55:44;;;;;;;6.88;4.65;;;;;;;14.47;73.76;99223.88;4859979;29;20033;-59
2023/09/06 00:58:15;;;;;;;7.72;4.60;;;;;;;14.52;73.07;99222.03;4858900;29;20049;-59
2023/09/06 01:00:45;;;;;;;8.85;5.07;;;;;;;14.59;73.21;99212.97;4828595;29;20065;-58
2023/09/06 01:03:11;;;;;;;10.02;4.78;;;;;;;14.66;72.72;99208.16;4843385;29;20050;-58
2023/09/06 01:05:44;;;;;;;7.07;4.50;;;;;;;14.70;72.64;99198.53;4859861;29;20060;-58
2023/09/06 01:08:13;;;;;;;8.05;4.78;;;;;;;14.74;72.46;99199.63;4843354;29;20576;-58
2023/09/06 01:10:38;;;;;;;6.78;4.75;;;;;;;14.77;72.41;99193.75;4858696;29;20412;-58
2023/09/06 01:13:04;;;;;;;9.80;4.50;;;;;;;14.80;72.48;99189.75;4859811;29;20050;-58
2023/09/06 01:15:31;;;;;;;8.18;4.40;;;;;;;14.84;72.01;99183.59;4859988;29;20049;-59
2023/09/06 01:17:59;;;;;;;10.27;4.60;;;;;;;14.87;71.60;99174.25;4858299;29;20060;-58
2023/09/06 01:20:32;;;;;;;6.10;4.18;;;;;;;14.91;71.52;99162.78;4859843;29;20038;-59
2023/09/06 01:23:26;;;;;;;6.18;4.25;;;;;;;14.91;71.63;99161.94;4840117;29;20461;-58
2023/09/06 01:25:51;;;;;;;8.15;4.90;;;;;;;14.92;71.10;99158.22;4840877;29;20142;-59
2023/09/06 01:28:17;;;;;;;6.65;3.88;;;;;;;14.95;70.91;99149.69;4839955;29;20497;-58
2023/09/06 01:30:43;;;;;;;7.28;4.75;;;;;;;14.98;70.82;99146.47;4839019;29;20038;-59
2023/09/06 01:33:08;;;;;;;8.07;4.05;;;;;;;15.00;71.07;99152.34;4841126;29;20489;-58
2023/09/06 01:35:34;;;;;;;8.10;4.13;;;;;;;15.01;71.04;99148.59;4841122;29;20095;-59
2023/09/06 01:37:59;;;;;;;7.18;3.92;;;;;;;15.04;70.61;99142.69;4841105;29;20070;-59
2023/09/06 01:40:28;;;;;;;8.25;4.47;;;;;;;15.04;70.45;99140.03;4857902;29;20428;-58
2023/09/06 01:42:54;;;;;;;5.85;3.80;;;;;;;15.02;70.47;99136.03;4859535;29;20049;-58
2023/09/06 01:45:20;;;;;;;8.13;4.38;;;;;;;15.01;70.92;99132.56;4842527;29;20106;-58
2023/09/06 01:47:48;;;;;;;5.80;4.20;;;;;;;15.03;70.82;99132.28;4857961;29;20050;-58
2023/09/06 01:50:19;;;;;;;10.07;4.57;;;;;;;14.99;70.67;99127.50;4843132;29;20050;-59
2023/09/06 01:52:46;;;;;;;5.47;3.92;;;;;;;15.01;70.63;99127.22;4859284;29;20077;-57
2023/09/06 01:55:11;;;;;;;5.35;4.00;;;;;;;15.03;70.80;99121.59;4842583;29;20053;-57
2023/09/06 01:57:37;;;;;;;4.65;3.92;;;;;;;15.06;70.63;99129.06;4859264;29;20417;-57
2023/09/06 02:00:23;;;;;;;5.28;3.83;;;;;;;15.06;70.14;99127.22;4857872;29;20046;-59
2023/09/06 02:02:50;;;;;;;9.52;3.78;;;;;;;15.10;70.28;99125.59;4859146;29;20414;-57
2023/09/06 02:05:16;;;;;;;10.48;4.22;;;;;;;15.15;70.08;99128.25;4857758;29;20087;-59
2023/09/06 02:07:42;;;;;;;5.65;3.75;;;;;;;15.17;70.05;99122.63;4859172;29;20073;-58
2023/09/06 02:10:08;;;;;;;5.57;4.03;;;;;;;15.16;70.22;99123.72;4857789;29;20056;-59
2023/09/06 02:12:34;;;;;;;7.65;3.80;;;;;;;15.11;70.45;99121.06;4859108;29;20053;-57
2023/09/06 02:15:00;;;;;;;7.30;3.83;;;;;;;15.08;70.67;99124.25;4858939;29;20468;-59
2023/09/06 02:17:26;;;;;;;7.50;4.18;;;;;;;15.06;70.69;99124.56;4859224;29;20060;-58
2023/09/06 02:19:52;;;;;;;4.38;3.95;;;;;;;15.09;70.35;99126.69;4857620;29;20045;-58
2023/09/06 02:22:18;;;;;;;5.00;3.45;;;;;;;15.09;70.39;99120.50;4858973;29;20068;-60
2023/09/06 02:24:44;;;;;;;5.40;3.60;;;;;;;15.05;70.86;99119.47;4858845;29;20060;-59
2023/09/06 02:27:12;;;;;;;4.70;3.58;;;;;;;15.01;70.74;99121.91;4858954;29;20149;-58
2023/09/06 02:29:40;;;;;;;6.20;4.28;;;;;;;14.97;70.63;99118.97;4859134;29;20045;-58
2023/09/06 02:32:05;;;;;;;10.25;4.00;;;;;;;14.94;70.98;99114.19;4858966;29;20080;-59
2023/09/06 02:34:31;;;;;;;6.95;4.10;;;;;;;14.92;71.43;99112.84;4859038;29;20042;-59
2023/09/06 02:36:57;;;;;;;7.10;4.22;;;;;;;14.89;71.72;99116.06;4858700;29;20186;-57
2023/09/06 02:39:25;;;;;;;8.75;4.07;;;;;;;14.89;71.57;99108.88;4858687;29;20551;-58
2023/09/06 02:41:52;;;;;;;6.32;4.28;;;;;;;14.93;71.60;99111.78;4859163;29;20500;-57
2023/09/06 02:44:17;;;;;;;6.22;3.70;;;;;;;14.92;71.44;99110.19;4861105;29;20057;-59
2023/09/06 02:46:43;;;;;;;7.70;4.10;;;;;;;14.93;71.67;99104.56;4861007;29;20060;-58
2023/09/06 02:49:13;;;;;;;6.13;4.03;;;;;;;14.94;71.75;99103.50;4845680;29;20195;-58
2023/09/06 02:51:42;;;;;;;6.00;3.95;;;;;;;14.97;71.95;99107.47;4861000;29;20076;-59
2023/09/06 02:54:09;;;;;;;7.13;3.95;;;;;;;14.95;71.52;99104.31;4860793;29;20053;-58
2023/09/06 02:56:37;;;;;;;5.88;4.40;;;;;;;14.95;71.82;99099.75;4862084;29;20058;-57
2023/09/06 02:59:07;;;;;;;5.63;4.30;;;;;;;14.96;71.67;99084.53;4860762;29;20046;-57
2023/09/06 03:01:35;;;;;;;7.88;4.10;;;;;;;14.97;71.50;99089.63;4862316;29;20090;-58
2023/09/06 03:04:06;;;;;;;6.47;4.15;;;;;;;14.99;71.74;99097.34;4845320;29;20041;-56
2023/09/06 03:06:33;;;;;;;9.63;4.03;;;;;;;14.99;71.35;99092.00;4862287;29;20049;-57
2023/09/06 03:09:06;;;;;;;7.95;4.10;;;;;;;14.98;71.63;99090.41;4863722;29;20042;-58
2023/09/06 03:11:32;;;;;;;5.93;3.75;;;;;;;14.99;71.88;99073.31;4861706;29;20092;-58
2023/09/06 03:13:58;;;;;;;5.47;3.83;;;;;;;15.04;71.71;99086.66;4860453;29;20143;-58
2023/09/06 03:16:24;;;;;;;5.82;3.92;;;;;;;15.07;71.27;99078.09;4861056;29;20508;-60
2023/09/06 03:18:52;;;;;;;7.03;4.10;;;;;;;15.09;71.18;99073.28;4862054;29;20485;-58
2023/09/06 03:21:18;;;;;;;5.45;3.72;;;;;;;15.09;71.28;99069.78;4860446;29;20045;-59
2023/09/06 03:23:45;;;;;;;6.47;3.67;;;;;;;15.06;71.38;99073.84;4862022;29;20101;-59
2023/09/06 03:26:13;;;;;;;8.90;3.97;;;;;;;15.08;70.92;99066.34;4844848;29;20070;-59
2023/09/06 03:28:42;;;;;;;5.85;3.78;;;;;;;15.11;71.14;99065.00;4845099;29;20132;-59
2023/09/06 03:31:12;;;;;;;5.85;3.80;;;;;;;15.13;70.99;99055.63;4859965;29;20056;-59
2023/09/06 03:33:39;;;;;;;5.28;3.70;;;;;;;15.17;71.29;99058.53;4859782;29;20512;-57
2023/09/06 03:36:09;;;;;;;6.78;3.88;;;;;;;15.19;71.25;99059.06;4860160;29;20049;-59
2023/09/06 03:38:38;;;;;;;5.43;3.65;;;;;;;15.19;70.77;99054.53;4860512;29;20084;-59
2023/09/06 03:41:07;;;;;;;8.98;4.07;;;;;;;15.21;71.07;99044.38;4860293;29;20457;-59
2023/09/06 03:43:33;;;;;;;6.65;3.97;;;;;;;15.20;71.06;99031.28;4860342;29;20049;-59
2023/09/06 03:46:04;;;;;;;6.22;4.25;;;;;;;15.27;70.78;99033.69;4861828;29;20064;-58
2023/09/06 03:48:30;;;;;;;5.25;3.80;;;;;;;15.26;70.80;99037.41;4844134;29;20041;-57
2023/09/06 03:50:57;;;;;;;7.90;3.85;;;;;;;15.25;71.01;99033.16;4844369;29;20634;-58
2023/09/06 03:53:25;;;;;;;7.40;3.75;;;;;;;15.18;71.09;99023.56;4858978;29;20077;-58
2023/09/06 03:55:58;;;;;;;7.85;3.63;;;;;;;15.18;71.00;99025.47;4860377;29;20140;-59
2023/09/06 03:58:33;;;;;;;5.30;3.35;;;;;;;15.16;71.21;99023.03;4860950;29;20114;-59
2023/09/06 04:00:59;;;;;;;5.60;3.55;;;;;;;15.40;70.67;99025.03;4859603;29;20080;-59
2023/09/06 04:03:31;;;;;;;6.85;3.67;;;;;;;15.79;69.41;99038.38;4859778;29;20049;-57
2023/09/06 04:06:02;;;;;;;5.60;3.22;;;;;;;16.09;68.01;99040.00;4828800;29;20057;-60
2023/09/06 04:08:28;;;;;;;6.35;3.70;;;;;;;16.05;67.68;99038.97;4859804;29;20045;-59
2023/09/06 04:10:55;;;;;;;7.97;3.60;;;;;;;16.00;67.98;99036.34;4859523;29;20575;-61
2023/09/06 04:13:21;;;;;;;10.35;3.95;;;;;;;15.92;68.47;99020.91;4863235;29;20041;-59
2023/09/06 04:15:48;;;;;;;6.53;3.67;;;;;;;15.94;68.63;99015.28;4861825;29;20049;-59
2023/09/06 04:18:14;;;;;;;6.38;3.67;;;;;;;15.92;68.66;99014.78;4862096;29;20053;-58
2023/09/06 04:20:46;;;;;;;5.35;3.47;;;;;;;15.88;68.31;99015.34;4861658;29;20054;-60
2023/09/06 04:23:13;;;;;;;4.90;3.70;;;;;;;15.78;69.09;99017.31;4862350;29;20049;-58
2023/09/06 04:25:44;;;;;;;4.45;3.60;;;;;;;15.71;69.45;99019.50;4861600;29;20543;-57
2023/09/06 04:28:16;;;;;;;9.38;3.60;;;;;;;15.80;69.12;99015.94;4859469;29;20124;-59
2023/09/06 04:30:46;;;;;;;5.57;3.60;;;;;;;16.04;68.54;99020.53;4859271;29;20546;-59
2023/09/06 04:33:14;;;;;;;7.88;3.75;;;;;;;16.34;67.90;99020.22;4859318;29;20060;-59
2023/09/06 04:35:47;;;;;;;4.93;3.60;;;;;;;16.43;67.42;99025.75;4859126;29;20053;-60
2023/09/06 04:38:16;;;;;;;5.00;3.60;;;;;;;16.57;66.89;99018.63;4859021;29;20045;-59
2023/09/06 04:40:43;;;;;;;6.32;3.50;;;;;;;16.68;66.49;99026.56;4860125;29;20052;-59
2023/09/06 04:43:12;;;;;;;5.95;3.85;;;;;;;16.78;66.21;99027.25;4858830;29;20468;-59
2023/09/06 04:45:38;;;;;;;7.93;3.67;;;;;;;16.75;66.37;99030.47;4860229;29;20049;-60
2023/09/06 04:48:09;;;;;;;5.70;3.60;;;;;;;16.75;66.53;99033.13;4858677;29;20082;-59
2023/09/06 04:50:40;;;;;;;7.13;3.40;;;;;;;16.72;66.65;99022.22;4843463;29;20092;-58
2023/09/06 04:53:08;;;;;;;8.50;3.90;;;;;;;16.67;66.77;99017.72;4843434;29;20057;-59
2023/09/06 04:55:37;;;;;;;8.73;3.70;;;;;;;16.63;67.18;99022.06;4859499;29;20128;-59
2023/09/06 04:58:11;;;;;;;6.43;3.80;;;;;;;16.67;67.04;99017.72;4858454;29;20124;-59
2023/09/06 05:00:41;;;;;;;8.18;4.38;;;;;;;16.70;67.02;99014.47;4858538;29;20052;-59
2023/09/06 05:03:13;;;;;;;4.97;3.83;;;;;;;16.72;67.16;99019.53;4860026;29;20049;-60
2023/09/06 05:05:41;;;;;;;8.40;3.78;;;;;;;16.80;67.60;99013.59;4857145;29;20520;-59
2023/09/06 05:08:08;;;;;;;4.43;3.22;;;;;;;16.84;67.28;99005.78;4858456;29;20077;-59
2023/09/06 05:10:37;;;;;;;6.15;3.40;;;;;;;16.73;67.45;99015.78;4858271;29;20049;-60
2023/09/06 05:13:07;;;;;;;8.20;3.30;;;;;;;16.68;67.67;99008.63;4858364;29;20046;-57
2023/09/06 05:15:37;;;;;;;6.00;3.40;;;;;;;16.74;67.79;99001.31;4842851;29;20054;-59
2023/09/06 05:18:06;;;;;;;5.93;3.63;;;;;;;16.79;67.86;99009.28;4842955;29;20473;-59
2023/09/06 05:20:38;;;;;;;4.35;3.50;;;;;;;16.80;67.68;98995.63;4858257;29;20049;-59
2023/09/06 05:23:12;;;;;;;6.57;4.13;;;;;;;16.84;67.75;98995.84;4858292;29;20053;-58
2023/09/06 05:25:40;;;;;;;9.68;3.58;;;;;;;16.87;67.69;98989.13;4857844;29;20082;-58
2023/09/06 05:28:12;;;;;;;6.88;3.72;;;;;;;16.89;67.99;98985.09;4858084;29;20496;-59
2023/09/06 05:30:43;;;;;;;7.32;3.47;;;;;;;16.97;67.72;98983.63;4857944;29;20057;-59
2023/09/06 05:33:13;;;;;;;6.57;3.65;;;;;;;16.99;67.48;98989.50;4858170;29;20544;-58
2023/09/06 05:35:41;;;;;;;7.78;3.72;;;;;;;17.05;67.53;98976.84;4858104;29;20056;-59
2023/09/06 05:38:09;;;;;;;7.82;3.60;;;;;;;17.14;67.48;98980.44;4841314;29;20053;-58
2023/09/06 05:40:40;;;;;;;8.10;4.13;;;;;;;17.25;67.33;98979.22;4827921;29;20049;-58
2023/09/06 05:43:07;;;;;;;12.30;4.10;;;;;;;17.29;67.19;98980.22;4857404;29;20423;-58
2023/09/06 05:45:34;;;;;;;10.05;3.70;;;;;;;17.32;66.89;98976.16;4857410;29;20063;-56
2023/09/06 05:48:01;;;;;;;13.60;4.65;;;;;;;17.31;67.68;98980.72;4841701;29;20049;-58
2023/09/06 05:50:27;;;;;;;9.27;4.18;;;;;;;17.36;67.46;98979.88;4855758;29;20057;-59
2023/09/06 05:52:54;;;;;;;5.50;3.90;;;;;;;17.43;67.77;98981.06;4859169;29;20077;-57
2023/09/06 05:55:20;;;;;;;4.28;3.45;;;;;;;17.46;67.84;98977.81;4856993;29;20048;-57
2023/09/06 05:57:48;;;;;;;8.43;3.90;;;;;;;17.44;67.55;98971.97;4857335;29;20049;-59
2023/09/06 06:00:15;;;;;;;7.03;3.58;;;;;;;17.48;67.45;98981.00;4841964;29;20499;-58
2023/09/06 06:02:48;;;;;;;6.53;3.83;;;;;;;17.61;67.31;98970.59;4857537;29;20057;-58
2023/09/06 06:05:16;;;;;;;7.88;3.67;;;;;;;17.67;67.19;98972.09;4857306;29;20072;-58
2023/09/06 06:07:42;;;;;;;7.57;4.07;;;;;;;17.71;67.16;98978.50;4857542;29;20057;-58
2023/09/06 06:10:09;;;;;;;6.28;3.60;;;;;;;17.76;67.00;98970.34;4858936;29;20045;-60
2023/09/06 06:12:37;;;;;;;8.40;3.67;;;;;;;17.83;67.51;98968.13;4858127;29;20065;-58
2023/09/06 06:15:03;;;;;;;5.93;3.60;;;;;;;17.93;67.07;98965.25;4860174;29;20051;-61
2023/09/06 06:17:29;;;;;;;6.75;3.75;;;;;;;17.99;67.08;98962.47;4860981;29;20503;-59
2023/09/06 06:19:55;;;;;;;5.45;3.72;;;;;;;18.01;67.19;98957.63;4862451;29;20056;-58
2023/09/06 06:22:20;;;;;;;7.40;3.42;;;;;;;18.07;67.00;98951.06;4864483;29;20077;-58
2023/09/06 06:24:46;;;;;;;4.95;3.45;;;;;;;18.13;67.34;98952.56;4863007;29;20053;-59
2023/09/06 06:27:12;;;;;;;6.70;3.80;;;;;;;18.21;66.97;98946.50;4862798;29;20060;-59
2023/09/06 06:29:38;;;;;;;9.80;4.00;;;;;;;18.35;66.98;98944.63;4862556;29;20124;-59
2023/09/06 06:32:04;;;;;;;9.43;3.55;;;;;;;18.52;66.33;98948.56;4862134;29;20117;-61
2023/09/06 06:34:30;;;;;;;5.45;3.60;;;;;;;18.75;66.00;98950.25;4864508;29;20049;-60
2023/09/06 06:36:57;;;;;;;5.30;3.35;;;;;;;19.01;64.58;98953.16;4864031;29;20052;-59
2023/09/06 06:39:23;;;;;;;7.50;3.45;;;;;;;19.15;64.07;98955.00;4830103;29;20063;-59
2023/09/06 06:41:49;;;;;;;5.22;3.45;;;;;;;19.19;64.40;98956.78;4861077;29;20041;-58
2023/09/06 06:44:15;;;;;;;6.25;3.45;;;;;;;19.18;64.32;98955.19;4830157;29;20397;-58
2023/09/06 06:46:41;;;;;;;8.95;3.70;;;;;;;19.15;64.70;98949.63;4860629;29;20056;-58
2023/09/06 06:49:07;;;;;;;5.97;3.88;;;;;;;19.22;64.91;98940.03;4862067;29;20045;-59
2023/09/06 06:51:39;;;;;;;9.60;3.70;;;;;;;19.37;64.50;98949.63;4862083;29;20054;-59
2023/09/06 06:54:09;;;;;;;6.68;3.85;;;;;;;19.45;64.30;98940.84;4845101;29;20046;-62
2023/09/06 06:56:37;;;;;;;5.43;3.47;;;;;;;19.51;63.88;98938.81;4861919;29;20045;-59
2023/09/06 06:59:04;;;;;;;8.68;3.65;;;;;;;19.72;63.46;98941.81;4859557;29;20109;-59
2023/09/06 07:01:30;;;;;;;7.57;3.92;;;;;;;19.67;63.57;98940.03;4861976;29;20074;-59
2023/09/06 07:03:57;;;;;;;10.88;4.47;;;;;;;19.49;64.25;98947.19;4861458;29;20128;-60
2023/09/06 07:06:24;;;;;;;7.43;4.20;;;;;;;19.63;64.28;98949.78;4860975;29;20049;-60
2023/09/06 07:08:54;;;;;;;9.40;4.13;;;;;;;19.93;63.19;98947.44;4862323;29;20045;-58
2023/09/06 07:11:20;;;;;;;9.07;4.13;;;;;;;20.19;62.86;98945.66;4861217;29;20160;-60
2023/09/06 07:13:47;;;;;;;11.40;4.10;;;;;;;20.29;62.35;98939.19;4861649;29;20141;-59
2023/09/06 07:16:15;;;;;;;7.75;3.83;;;;;;;20.34;62.00;98933.66;4861496;29;20049;-58
2023/09/06 07:18:41;;;;;;;13.05;3.80;;;;;;;20.30;62.21;98938.09;4861518;29;20084;-61
2023/09/06 07:21:06;;;;;;;5.05;3.78;;;;;;;20.23;62.18;98939.66;4861687;29;20068;-58
2023/09/06 07:23:32;;;;;;;12.32;4.07;;;;;;;20.24;62.43;98936.66;4861883;29;20056;-60
2023/09/06 07:25:58;;;;;;;8.70;3.95;;;;;;;20.27;62.63;98949.47;4861106;29;20413;-59
2023/09/06 07:28:23;;;;;;;10.48;4.20;;;;;;;20.39;61.83;98943.50;4861571;29;20153;-58
2023/09/06 07:30:49;;;;;;;22.08;4.90;;;;;;;20.30;61.79;98948.84;4842877;29;20053;-59
2023/09/06 07:33:15;;;;;;;23.38;4.90;;;;;;;20.14;62.25;98956.53;4826507;29;20045;-58
2023/09/06 07:35:42;;;;;;;11.85;4.43;;;;;;;19.99;62.55;98956.97;4858402;29;20053;-59
2023/09/06 07:38:08;;;;;;;10.98;3.90;;;;;;;20.12;62.34;98961.47;4861418;29;20527;-60
2023/09/06 07:40:34;;;;;;;8.10;3.70;;;;;;;20.34;61.83;98940.94;4859550;29;20049;-57
2023/09/06 07:42:59;;;;;;;8.38;3.72;;;;;;;20.55;61.00;98946.56;4861226;29;20041;-58
2023/09/06 07:45:25;;;;;;;5.63;3.92;;;;;;;20.80;60.61;98947.72;4861087;29;20053;-61
2023/09/06 07:47:51;;;;;;;6.22;3.72;;;;;;;20.85;59.60;98940.28;4861383;29;20437;-59
2023/09/06 07:50:17;;;;;;;10.32;3.85;;;;;;;20.89;59.20;98943.13;4860848;29;20057;-58
2023/09/06 07:52:43;;;;;;;15.75;3.80;;;;;;;20.63;59.98;98943.09;4844630;29;20060;-58
2023/09/06 07:55:08;;;;;;;7.63;3.50;;;;;;;20.45;60.08;98958.41;4859630;29;20046;-60
2023/09/06 07:57:34;;;;;;;14.32;4.20;;;;;;;20.22;60.75;98948.84;4860424;29;20037;-59
2023/09/06 08:00:00;;;;;;;10.02;4.30;;;;;;;20.41;60.79;98949.34;4859413;29;20517;-58
2023/09/06 08:02:25;;;;;;;6.47;4.15;;;;;;;20.42;60.24;98938.28;4861156;29;20086;-58
2023/09/06 08:04:51;;;;;;;9.95;4.10;;;;;;;20.57;59.95;98953.22;4860465;29;20508;-59
2023/09/06 08:07:17;;;;;;;8.10;4.10;;;;;;;20.58;59.86;98954.81;4860926;29;20053;-58
2023/09/06 08:09:43;;;;;;;14.88;3.92;;;;;;;20.53;59.02;98951.47;4859013;29;20135;-58
2023/09/06 08:12:09;;;;;;;15.55;3.97;;;;;;;20.48;59.50;98960.47;4860612;29;20037;-58
2023/09/06 08:14:35;;;;;;;7.05;3.90;;;;;;;20.36;59.54;98962.97;4860655;29;20132;-57
2023/09/06 08:17:01;;;;;;;10.48;4.03;;;;;;;20.28;59.91;98956.44;4859359;29;20049;-60
2023/09/06 08:19:27;;;;;;;11.07;4.20;;;;;;;20.56;58.97;98962.41;4858388;29;20041;-58
2023/09/06 08:21:53;;;;;;;7.53;4.25;;;;;;;20.87;57.28;98953.44;4860144;29;20045;-59
2023/09/06 08:24:19;;;;;;;15.30;4.20;;;;;;;20.98;57.37;98960.09;4860295;29;20512;-59
2023/09/06 08:26:47;;;;;;;8.35;3.78;;;;;;;21.07;57.41;98958.19;4860522;29;20520;-59
2023/09/06 08:29:13;;;;;;;11.85;3.97;;;;;;;21.26;57.04;98959.75;4859009;29;20053;-58
2023/09/06 08:31:38;;;;;;;4.97;3.70;;;;;;;20.97;56.50;98955.81;4859548;29;20049;-58
2023/09/06 08:34:04;;;;;;;6.60;3.60;;;;;;;20.60;57.56;98960.69;4857410;29;20105;-60
2023/09/06 08:36:30;;;;;;;16.75;4.70;;;;;;;20.35;58.09;98969.44;4856931;29;20053;-58
2023/09/06 08:38:57;;;;;;;10.68;3.58;;;;;;;20.06;57.92;98964.56;4858599;29;20133;-58
2023/09/06 08:41:26;;;;;;;13.23;4.35;;;;;;;19.97;58.26;98972.59;4858423;29;20060;-58
2023/09/06 08:43:52;;;;;;;8.55;4.20;;;;;;;19.95;58.94;98966.78;4842497;29;20076;-59
2023/09/06 08:46:23;;;;;;;11.95;4.15;;;;;;;19.84;59.33;98968.13;4859696;29;20643;-59
2023/09/06 08:48:49;;;;;;;6.70;3.60;;;;;;;19.85;59.24;98978.56;4860044;29;20045;-57
2023/09/06 08:51:20;;;;;;;6.78;3.60;;;;;;;19.72;59.77;98982.94;4858775;29;20067;-60
2023/09/06 08:53:47;;;;;;;6.57;3.72;;;;;;;19.75;60.10;98978.84;4859777;29;20536;-59
2023/09/06 08:56:15;;;;;;;7.15;3.67;;;;;;;19.82;60.10;98967.63;4860039;29;20049;-61
2023/09/06 08:58:41;;;;;;;7.63;4.22;;;;;;;19.86;59.98;98980.16;4858199;29;20184;-58
2023/09/06 09:01:08;;;;;;;7.53;3.42;;;;;;;19.90;59.23;98973.06;4860171;29;20397;-58
2023/09/06 09:03:34;;;;;;;8.38;3.75;;;;;;;19.90;59.56;98967.69;4860107;29;20045;-56
2023/09/06 09:06:01;;;;;;;6.32;3.38;;;;;;;19.87;59.56;98967.50;4842669;29;20045;-59
2023/09/06 09:08:28;;;;;;;7.25;4.07;;;;;;;20.09;59.30;98980.91;4859372;29;20049;-59
2023/09/06 09:11:26;;;;;;;9.70;3.88;;;;;;;20.45;58.52;98979.16;4859487;29;20049;-58
2023/09/06 09:13:52;;;;;;;12.20;4.80;;;;;;;20.85;57.65;98974.50;4847798;29;20076;-59
2023/09/06 09:16:17;;;;;;;14.35;4.32;;;;;;;21.00;57.17;98970.53;4860002;29;20076;-57
2023/09/06 09:18:44;;;;;;;8.48;3.80;;;;;;;21.32;56.39;98977.34;4859571;29;20101;-58
2023/09/06 09:21:11;;;;;;;7.93;3.20;;;;;;;21.09;55.10;98968.66;4858689;29;20465;-59
2023/09/06 09:23:55;;;;;;;7.40;3.25;;;;;;;20.79;55.09;98973.06;4858159;29;20049;-59
2023/09/06 09:26:21;;;;;;;7.32;3.30;;;;;;;20.59;55.60;98979.84;4858956;29;20069;-58
2023/09/06 09:28:48;;;;;;;6.25;2.63;;;;;;;20.53;55.56;98989.97;4858651;29;20088;-58
2023/09/06 09:31:15;;;;;;;5.78;2.97;;;;;;;20.32;56.46;98978.94;4857192;29;20344;-58
2023/09/06 09:33:52;;;;;;;7.63;3.05;;;;;;;20.11;56.69;98985.97;4856058;29;20190;-59
2023/09/06 09:36:18;;;;;;;9.00;3.17;;;;;;;19.95;56.98;98978.31;4857426;29;20046;-58
2023/09/06 09:38:49;;;;;;;12.00;3.63;;;;;;;19.65;56.84;98995.25;4859456;29;20041;-60
2023/09/06 09:41:15;;;;;;;8.70;2.85;;;;;;;19.45;57.44;99010.72;4859204;29;20053;-60
2023/09/06 09:43:41;;;;;;;12.00;3.40;;;;;;;19.51;57.23;99011.41;4858808;29;20409;-61
2023/09/06 09:46:07;;;;;;;9.40;3.50;;;;;;;19.59;56.81;99017.91;4858609;29;20061;-56
2023/09/06 09:48:34;;;;;;;6.88;3.67;;;;;;;19.56;57.22;99023.91;4858817;29;20449;-60
2023/09/06 09:51:07;;;;;;;10.25;3.35;;;;;;;19.41;57.31;99019.69;4858734;29;20045;-57
2023/09/06 09:53:33;;;;;;;4.15;3.00;;;;;;;19.41;56.66;99020.50;4858751;29;20182;-57
2023/09/06 09:56:08;;;;;;;7.57;3.00;;;;;;;19.42;56.00;99021.28;4858248;29;20049;-57
2023/09/06 09:58:36;;;;;;;6.65;3.03;;;;;;;19.54;56.74;99012.69;4857619;29;20037;-57
2023/09/06 10:01:05;;;;;;;8.75;4.05;;;;;;;19.86;55.09;99001.69;4859249;29;20057;-56
2023/09/06 10:03:39;;;;;;;5.70;3.42;;;;;;;20.02;54.07;99007.47;4810492;29;20042;-54
2023/09/06 10:06:06;;;;;;;6.97;3.50;;;;;;;20.12;54.07;98996.44;4839133;29;20542;-59
2023/09/06 10:08:35;;;;;;;3.80;3.05;;;;;;;20.30;54.50;99005.38;4842867;29;20196;-58
2023/09/06 10:11:01;;;;;;;5.97;3.22;;;;;;;20.37;53.73;98994.94;4860030;29;20097;-56
2023/09/06 10:13:26;;;;;;;7.53;3.28;;;;;;;20.36;53.23;99000.66;4858370;29;20511;-56
2023/09/06 10:15:53;;;;;;;6.53;3.92;;;;;;;20.22;53.59;99002.66;4859318;29;20053;-55
2023/09/06 10:18:19;;;;;;;4.60;2.90;;;;;;;20.19;54.08;98996.78;4842216;29;20495;-56
2023/09/06 10:20:46;;;;;;;5.80;3.17;;;;;;;20.33;54.54;98995.91;4858846;29;20142;-58
2023/09/06 10:23:12;;;;;;;6.05;2.95;;;;;;;20.33;53.98;98998.59;4857263;29;20132;-58
2023/09/06 10:25:43;;;;;;;5.40;2.95;;;;;;;20.18;54.10;99003.28;4858212;29;20061;-57
2023/09/06 10:28:09;;;;;;;3.30;2.40;;;;;;;19.93;54.02;99006.63;4857310;29;20060;-58
2023/09/06 10:30:51;;;;;;;5.72;2.63;;;;;;;19.79;54.97;98995.94;4857879;29;20049;-57
2023/09/06 10:33:38;;;;;;;12.82;4.18;;;;;;;19.71;55.54;98992.09;4858934;29;20050;-56
2023/09/06 10:36:12;;;;;;;6.25;3.13;;;;;;;19.77;55.21;98992.78;4859051;29;20053;-58
2023/09/06 10:38:52;;;;;;;5.68;3.17;;;;;;;19.80;54.74;98996.75;4858794;29;20050;-57
2023/09/06 10:41:22;;;;;;;4.55;3.08;;;;;;;19.79;54.50;99000.53;4858102;29;20461;-55
2023/09/06 10:44:03;;;;;;;3.70;2.80;;;;;;;19.75;53.99;99003.03;4857675;29;20045;-57
2023/09/06 10:46:35;;;;;;;10.57;2.72;;;;;;;19.67;52.66;98990.34;4859755;29;20100;-57
2023/09/06 10:49:25;;;;;;;7.80;2.70;;;;;;;19.69;53.62;99005.06;4858743;29;20054;-54
2023/09/06 10:52:09;;;;;;;4.22;2.75;;;;;;;19.72;53.47;98999.06;4842256;29;20041;-58
2023/09/06 10:54:38;;;;;;;4.47;2.88;;;;;;;19.97;52.90;99010.28;4858499;29;20563;-58
2023/09/06 10:57:06;;;;;;;6.10;2.70;;;;;;;20.13;52.76;98997.22;4858432;29;20050;-59
2023/09/06 10:59:39;;;;;;;3.22;2.20;;;;;;;20.21;52.08;99001.88;4858298;29;20050;-57
2023/09/06 11:02:27;;;;;;;6.68;2.78;;;;;;;20.19;51.84;98994.09;4858085;29;20056;-56
2023/09/06 11:05:05;;;;;;;4.65;2.28;;;;;;;20.25;51.91;99002.03;4858401;29;20563;-58
2023/09/06 11:07:45;;;;;;;4.78;2.38;;;;;;;20.28;51.08;99002.19;4861820;29;20049;-58
2023/09/06 11:10:11;;;;;;;5.20;2.65;;;;;;;20.29;51.58;98982.25;4861367;29;20049;-58
2023/09/06 11:12:38;;;;;;;7.95;2.80;;;;;;;20.47;51.18;98985.81;4859075;29;20500;-58
2023/09/06 11:15:07;;;;;;;7.43;2.70;;;;;;;20.51;51.63;98989.44;4860194;29;20048;-58
2023/09/06 11:17:33;;;;;;;9.95;2.95;;;;;;;20.47;51.51;98993.06;4860278;29;20097;-59
2023/09/06 11:20:16;;;;;;;19.52;3.35;;;;;;;20.33;50.81;98996.69;4861296;29;20050;-59
2023/09/06 11:22:51;;;;;;;5.68;2.50;;;;;;;20.16;51.42;98988.53;4861378;29;20110;-60
2023/09/06 11:25:21;;;;;;;9.68;2.60;;;;;;;20.18;50.25;99000.59;4861057;29;20076;-57
2023/09/06 11:27:48;;;;;;;20.33;2.80;;;;;;;20.29;49.76;98995.69;4861662;29;20501;-59
2023/09/06 11:30:21;;;;;;;44.65;4.15;;;;;;;20.22;49.37;98979.22;4859563;29;20057;-59
2023/09/06 11:32:51;;;;;;;3.67;2.30;;;;;;;20.16;49.21;99004.69;4859244;29;20054;-57
2023/09/06 11:35:24;;;;;;;7.45;2.90;;;;;;;19.93;50.78;98998.56;4860612;29;20553;-58
2023/09/06 11:37:51;;;;;;;2.75;2.53;;;;;;;19.80;52.23;99000.22;4862154;29;20105;-57